createdAt,value
2018-02-03T00:00:27.855Z,2.60
2018-02-03T00:02:56.178Z,2.70
2018-02-03T00:05:24.499Z,2.70
2018-02-03T00:07:52.832Z,2.70
2018-02-03T00:10:21.948Z,2.70
2018-02-03T00:12:50.236Z,2.60
2018-02-03T00:15:18.558Z,2.60
2018-02-03T00:17:46.864Z,2.70
2018-02-03T00:20:15.210Z,2.60
2018-02-03T00:22:44.296Z,2.60
2018-02-03T00:25:12.643Z,2.60
2018-02-03T00:27:40.952Z,2.60
2018-02-03T00:30:09.284Z,2.50
2018-02-03T00:32:37.602Z,2.40
2018-02-03T00:35:05.917Z,2.40
2018-02-03T00:37:34.987Z,2.20
2018-02-03T00:40:03.402Z,2.20
2018-02-03T00:42:31.736Z,2.20
2018-02-03T00:45:00.084Z,2.10
2018-02-03T00:47:28.391Z,2.10
2018-02-03T00:49:56.744Z,2.00
2018-02-03T00:52:25.040Z,2.00
2018-02-03T00:54:53.372Z,1.90
2018-02-03T00:57:21.678Z,2.00
2018-02-03T00:59:50.011Z,2.00
2018-02-03T01:02:18.328Z,2.00
2018-02-03T01:04:46.635Z,1.90
2018-02-03T01:07:14.982Z,1.80
2018-02-03T01:09:43.278Z,1.70
2018-02-03T01:12:11.627Z,1.50
2018-02-03T01:14:39.957Z,1.40
2018-02-03T01:17:08.282Z,1.50
2018-02-03T01:19:40.144Z,1.40
2018-02-03T01:22:09.235Z,1.50
2018-02-03T01:24:37.547Z,1.50
2018-02-03T01:27:05.869Z,1.50
2018-02-03T01:29:34.167Z,1.50
2018-02-03T01:32:03.227Z,1.50
2018-02-03T01:34:31.542Z,1.40
2018-02-03T01:37:00.619Z,1.10
2018-02-03T01:39:28.938Z,1.10
2018-02-03T01:41:57.238Z,1.10
2018-02-03T01:44:25.565Z,1.20
2018-02-03T01:46:53.886Z,1.00
2018-02-03T01:49:22.211Z,1.00
2018-02-03T01:51:51.304Z,0.90
2018-02-03T01:54:19.615Z,0.90
2018-02-03T01:56:47.914Z,1.10
2018-02-03T01:59:16.253Z,1.20
2018-02-03T02:01:45.319Z,1.20
2018-02-03T02:04:13.653Z,1.20
2018-02-03T02:06:41.959Z,1.10
2018-02-03T02:09:10.286Z,1.00
2018-02-03T02:11:39.351Z,1.10
2018-02-03T02:14:07.655Z,1.10
2018-02-03T02:16:35.994Z,1.10
2018-02-03T02:19:04.293Z,1.20
2018-02-03T02:21:32.617Z,1.20
2018-02-03T02:24:00.936Z,1.30
2018-02-03T02:26:29.263Z,1.40
2018-02-03T02:28:57.558Z,1.40
2018-02-03T02:31:25.892Z,1.50
2018-02-03T02:33:54.195Z,1.40
2018-02-03T02:36:23.281Z,1.40
2018-02-03T02:38:52.348Z,1.50
2018-02-03T02:41:20.671Z,1.50
2018-02-03T02:43:48.978Z,1.50
2018-02-03T02:46:17.315Z,1.50
2018-02-03T02:48:46.391Z,1.50
2018-02-03T02:51:15.503Z,1.50
2018-02-03T02:53:44.566Z,1.50
2018-02-03T02:56:17.483Z,1.50
2018-02-03T02:58:46.567Z,1.60
2018-02-03T03:01:15.019Z,1.50
2018-02-03T03:03:43.328Z,1.60
2018-02-03T03:06:11.718Z,1.50
2018-02-03T03:08:40.812Z,1.50
2018-02-03T03:11:09.880Z,1.60
2018-02-03T03:13:38.212Z,1.60
2018-02-03T03:16:06.520Z,1.60
2018-02-03T03:18:34.871Z,1.60
2018-02-03T03:21:03.162Z,1.70
2018-02-03T03:23:32.258Z,1.80
2018-02-03T03:26:00.576Z,1.70
2018-02-03T03:28:28.919Z,1.70
2018-02-03T03:30:57.239Z,1.70
2018-02-03T03:33:25.535Z,1.70
2018-02-03T03:35:53.876Z,1.70
2018-02-03T03:38:22.185Z,1.80
2018-02-03T03:40:50.508Z,1.70
2018-02-03T03:43:18.817Z,1.70
2018-02-03T03:45:47.165Z,1.70
2018-02-03T03:48:15.474Z,1.80
2018-02-03T03:50:43.796Z,1.80
2018-02-03T03:53:12.113Z,1.80
2018-02-03T03:55:40.435Z,1.80
2018-02-03T03:58:08.744Z,1.80
2018-02-03T04:00:37.109Z,1.80
2018-02-03T04:03:06.747Z,1.80
2018-02-03T04:05:35.080Z,1.80
2018-02-03T04:08:03.400Z,1.80
2018-02-03T04:10:31.721Z,1.90
2018-02-03T04:13:00.067Z,1.80
2018-02-03T04:15:28.386Z,1.80
2018-02-03T04:17:57.518Z,1.80
2018-02-03T04:20:25.835Z,1.80
2018-02-03T04:22:54.161Z,1.90
2018-02-03T04:25:36.986Z,1.90
2018-02-03T04:28:05.324Z,1.90
2018-02-03T04:30:33.649Z,1.80
2018-02-03T04:33:01.980Z,1.80
2018-02-03T04:35:30.313Z,1.80
2018-02-03T04:37:58.647Z,1.80
2018-02-03T04:40:26.964Z,1.90
2018-02-03T04:42:55.301Z,1.80
2018-02-03T04:45:23.600Z,1.80
2018-02-03T04:47:52.704Z,1.80
2018-02-03T04:50:37.412Z,1.80
2018-02-03T04:53:05.738Z,1.80
2018-02-03T04:55:34.825Z,1.90
2018-02-03T04:58:03.161Z,1.80
2018-02-03T05:00:31.465Z,1.80
2018-02-03T05:03:06.705Z,1.80
2018-02-03T05:05:35.016Z,1.80
2018-02-03T05:08:04.083Z,1.80
2018-02-03T05:10:32.420Z,1.80
2018-02-03T05:13:00.733Z,1.80
2018-02-03T05:15:29.063Z,1.80
2018-02-03T05:17:57.372Z,1.80
2018-02-03T05:20:25.714Z,1.80
2018-02-03T05:22:54.028Z,1.80
2018-02-03T05:25:22.363Z,1.90
2018-02-03T05:27:51.444Z,1.90
2018-02-03T05:30:20.545Z,1.90
2018-02-03T05:32:49.619Z,1.90
2018-02-03T05:35:17.972Z,1.90
2018-02-03T05:37:46.276Z,1.90
2018-02-03T05:40:14.588Z,1.90
2018-02-03T05:43:08.636Z,2.00
2018-02-03T05:45:36.944Z,2.00
2018-02-03T05:48:15.518Z,2.00
2018-02-03T05:50:43.846Z,2.00
2018-02-03T05:59:15.101Z,2.10
2018-02-03T06:01:43.436Z,2.10
2018-02-03T06:04:12.515Z,2.10
2018-02-03T06:06:40.824Z,2.10
2018-02-03T06:09:26.592Z,2.00
2018-02-03T06:14:55.032Z,2.00
2018-02-03T06:17:23.379Z,2.00
2018-02-03T06:19:51.706Z,2.00
2018-02-03T06:22:34.758Z,2.00
2018-02-03T06:25:03.070Z,2.00
2018-02-03T06:27:33.327Z,2.00
2018-02-03T06:30:01.659Z,1.90
2018-02-03T06:32:29.973Z,2.00
2018-02-03T06:34:58.304Z,2.00
2018-02-03T06:37:26.621Z,2.00
2018-02-03T06:39:56.976Z,1.90
2018-02-03T06:42:25.294Z,1.90
2018-02-03T06:44:53.625Z,2.00
2018-02-03T06:47:21.935Z,1.90
2018-02-03T06:49:50.271Z,2.00
2018-02-03T06:52:18.594Z,2.00
2018-02-03T06:54:47.697Z,1.90
2018-02-03T06:57:16.026Z,1.90
2018-02-03T06:59:44.353Z,1.90
2018-02-03T07:02:12.665Z,1.90
2018-02-03T07:04:40.996Z,1.90
2018-02-03T07:07:10.071Z,1.90
2018-02-03T07:09:38.424Z,1.90
2018-02-03T07:12:06.740Z,1.90
2018-02-03T07:14:35.819Z,1.80
2018-02-03T07:17:04.157Z,1.80
2018-02-03T07:19:32.459Z,1.90
2018-02-03T07:22:00.784Z,1.90
2018-02-03T07:24:30.154Z,1.90
2018-02-03T07:26:58.489Z,1.80
2018-02-03T07:29:26.796Z,1.90
2018-02-03T07:31:55.124Z,1.90
2018-02-03T07:34:23.440Z,2.00
2018-02-03T07:36:51.784Z,1.90
2018-02-03T07:39:20.095Z,1.90
2018-02-03T07:41:48.421Z,2.00
2018-02-03T07:44:17.504Z,2.00
2018-02-03T07:46:46.612Z,2.10
2018-02-03T07:49:15.700Z,2.10
2018-02-03T07:51:44.033Z,2.10
2018-02-03T07:54:12.361Z,2.20
2018-02-03T07:56:40.696Z,2.20
2018-02-03T07:59:09.764Z,2.20
2018-02-03T08:01:38.132Z,2.20
2018-02-03T08:04:07.200Z,2.30
2018-02-03T08:06:36.376Z,2.20
2018-02-03T08:09:04.659Z,2.20
2018-02-03T08:11:33.004Z,2.20
2018-02-03T08:14:01.308Z,2.30
2018-02-03T08:16:29.665Z,2.20
2018-02-03T08:18:57.996Z,2.10
2018-02-03T08:21:26.319Z,1.60
2018-02-03T08:23:54.650Z,1.50
2018-02-03T08:26:22.991Z,1.30
2018-02-03T08:28:51.307Z,1.30
2018-02-03T08:31:19.633Z,1.10
2018-02-03T08:33:47.964Z,1.10
2018-02-03T08:36:17.095Z,0.90
2018-02-03T08:38:47.056Z,1.10
2018-02-03T08:41:15.408Z,1.10
2018-02-03T08:43:43.771Z,1.20
2018-02-03T08:46:12.127Z,1.20
2018-02-03T08:48:40.489Z,1.20
2018-02-03T08:51:08.853Z,1.30
2018-02-03T08:53:37.255Z,1.40
2018-02-03T08:56:05.629Z,1.40
2018-02-03T08:58:33.970Z,1.40
2018-02-03T09:01:02.349Z,1.40
2018-02-03T09:03:30.680Z,1.40
2018-02-03T09:05:59.060Z,1.40
2018-02-03T09:08:27.446Z,1.40
2018-02-03T09:10:56.597Z,1.50
2018-02-03T09:13:24.965Z,1.50
2018-02-03T09:15:53.366Z,1.50
2018-02-03T09:18:21.753Z,1.60
2018-02-03T09:20:50.141Z,1.60
2018-02-03T09:23:18.545Z,1.70
2018-02-03T09:25:46.969Z,1.70
2018-02-03T09:28:15.341Z,1.70
2018-02-03T09:30:43.774Z,1.70
2018-02-03T09:33:12.193Z,1.70
2018-02-03T09:35:40.662Z,1.80
2018-02-03T09:38:09.083Z,1.80
2018-02-03T09:40:37.513Z,1.90
2018-02-03T09:43:05.915Z,2.00
2018-02-03T09:45:34.356Z,2.00
2018-02-03T09:48:02.825Z,2.00
2018-02-03T09:50:31.266Z,2.10
2018-02-03T09:52:59.734Z,2.10
2018-02-03T09:55:28.143Z,2.10
2018-02-03T09:57:56.558Z,2.10
2018-02-03T10:00:24.941Z,2.20
2018-02-03T10:02:53.318Z,2.20
2018-02-03T10:05:21.688Z,2.30
2018-02-03T10:07:50.084Z,2.40
2018-02-03T10:10:18.428Z,2.40
2018-02-03T10:12:47.740Z,2.40
2018-02-03T10:15:16.070Z,2.40
2018-02-03T10:17:44.479Z,2.50
2018-02-03T10:20:12.817Z,2.60
2018-02-03T10:22:41.173Z,2.80
2018-02-03T10:25:09.509Z,2.90
2018-02-03T10:27:37.845Z,3.00
2018-02-03T10:30:06.937Z,3.20
2018-02-03T10:32:35.329Z,3.20
2018-02-03T10:35:04.445Z,3.40
2018-02-03T10:37:32.776Z,3.40
2018-02-03T10:40:01.084Z,3.50
2018-02-03T10:42:29.417Z,3.70
2018-02-03T10:44:57.755Z,3.60
2018-02-03T10:47:26.062Z,3.70
2018-02-03T10:49:55.437Z,3.70
2018-02-03T10:52:23.776Z,3.70
2018-02-03T10:54:52.112Z,3.50
2018-02-03T10:57:20.456Z,3.70
2018-02-03T10:59:48.835Z,3.70
2018-02-03T11:02:17.968Z,4.30
2018-02-03T11:04:46.304Z,4.30
2018-02-03T11:07:15.606Z,4.30
2018-02-03T11:09:43.990Z,4.30
2018-02-03T11:12:17.972Z,4.20
2018-02-03T11:55:17.253Z,5.10
2018-02-03T11:57:45.898Z,5.10
2018-02-03T12:00:14.492Z,5.00
2018-02-03T12:02:43.749Z,4.90
2018-02-03T12:05:12.158Z,4.90
2018-02-03T12:07:40.552Z,5.00
2018-02-03T12:10:08.942Z,4.90
2018-02-03T12:12:37.353Z,4.70
2018-02-03T12:15:05.720Z,4.60
2018-02-03T12:17:34.089Z,4.60
2018-02-03T12:20:02.408Z,4.70
2018-02-03T12:22:30.749Z,4.60
2018-02-03T12:24:59.077Z,4.50
2018-02-03T12:27:28.200Z,4.30
2018-02-03T12:29:56.533Z,4.30
2018-02-03T12:32:25.746Z,4.30
2018-02-03T12:34:54.068Z,4.40
2018-02-03T12:37:22.394Z,4.30
2018-02-03T12:39:50.740Z,4.20
2018-02-03T12:42:19.065Z,4.30
2018-02-03T12:44:48.182Z,4.40
2018-02-03T12:47:16.513Z,4.30
2018-02-03T12:49:44.859Z,4.50
2018-02-03T12:52:13.170Z,4.40
2018-02-03T12:54:41.509Z,4.50
2018-02-03T12:57:09.828Z,4.50
2018-02-03T12:59:38.161Z,4.60
2018-02-03T13:02:06.470Z,4.50
2018-02-03T13:04:34.786Z,4.60
2018-02-03T13:07:03.096Z,4.50
2018-02-03T13:09:31.420Z,4.40
2018-02-03T13:11:59.739Z,4.30
2018-02-03T13:14:28.819Z,4.20
2018-02-03T13:16:57.125Z,4.20
2018-02-03T13:19:25.453Z,4.20
2018-02-03T13:21:53.751Z,4.10
2018-02-03T13:24:22.084Z,4.10
2018-02-03T13:26:50.403Z,4.00
2018-02-03T13:29:18.708Z,4.00
2018-02-03T13:31:47.785Z,4.00
2018-02-03T13:34:16.082Z,4.00
2018-02-03T13:36:45.168Z,4.00
2018-02-03T13:39:14.230Z,4.00
2018-02-03T13:41:42.561Z,4.00
2018-02-03T13:44:10.868Z,3.90
2018-02-03T13:46:39.211Z,3.90
2018-02-03T13:49:08.278Z,3.80
2018-02-03T13:51:36.601Z,3.80
2018-02-03T13:54:04.903Z,3.80
2018-02-03T13:56:33.216Z,3.80
2018-02-03T13:59:01.511Z,3.80
2018-02-03T14:01:30.609Z,3.80
2018-02-03T14:03:59.709Z,3.90
2018-02-03T14:06:28.805Z,3.90
2018-02-03T14:08:57.882Z,3.80
2018-02-03T14:11:26.972Z,3.70
2018-02-03T14:13:55.272Z,3.70
2018-02-03T14:16:24.345Z,3.90
2018-02-03T14:18:52.638Z,3.90
2018-02-03T14:21:21.731Z,3.90
2018-02-03T14:23:56.564Z,3.90
2018-02-03T14:26:25.647Z,3.80
2018-02-03T14:28:53.948Z,3.80
2018-02-03T14:31:22.280Z,3.90
2018-02-03T14:33:50.584Z,4.00
2018-02-03T14:36:18.912Z,3.90
2018-02-03T14:38:47.224Z,4.00
2018-02-03T14:41:15.538Z,3.90
2018-02-03T14:43:44.598Z,3.80
2018-02-03T14:46:12.936Z,3.80
2018-02-03T14:48:41.232Z,3.90
2018-02-03T14:51:09.565Z,3.90
2018-02-03T14:53:38.632Z,3.70
2018-02-03T14:56:10.002Z,3.70
2018-02-03T14:58:39.091Z,3.80
2018-02-03T15:01:07.389Z,3.80
2018-02-03T15:03:36.473Z,3.70
2018-02-03T15:06:04.779Z,3.70
2018-02-03T15:08:33.106Z,3.70
2018-02-03T15:11:01.404Z,3.60
2018-02-03T15:13:30.496Z,3.60
2018-02-03T15:15:58.806Z,3.60
2018-02-03T15:18:27.119Z,3.60
2018-02-03T15:20:55.420Z,3.60
2018-02-03T15:23:23.763Z,3.50
2018-02-03T15:25:52.070Z,3.50
2018-02-03T15:28:20.392Z,3.50
2018-02-03T15:30:48.696Z,3.50
2018-02-03T15:33:17.779Z,3.40
2018-02-03T15:35:46.090Z,3.40
2018-02-03T15:38:14.404Z,3.40
2018-02-03T15:40:43.494Z,3.40
2018-02-03T15:43:11.827Z,3.40
2018-02-03T15:45:40.152Z,3.30
2018-02-03T15:48:08.478Z,3.30
2018-02-03T15:50:36.841Z,3.10
2018-02-03T15:53:05.903Z,3.20
2018-02-03T15:55:34.241Z,3.20
2018-02-03T15:58:02.548Z,3.20
2018-02-03T16:00:30.878Z,3.20
2018-02-03T16:02:59.179Z,3.10
2018-02-03T16:05:27.486Z,3.10
2018-02-03T16:07:55.792Z,3.00
2018-02-03T16:10:24.882Z,3.10
2018-02-03T16:12:53.964Z,3.10
2018-02-03T16:15:23.204Z,3.10
2018-02-03T16:17:51.509Z,3.00
2018-02-03T16:20:19.852Z,3.00
2018-02-03T16:22:48.156Z,2.90
2018-02-03T16:25:16.468Z,2.80
2018-02-03T16:27:44.783Z,2.80
2018-02-03T16:30:13.086Z,2.70
2018-02-03T16:32:42.188Z,2.60
2018-02-03T16:35:10.501Z,2.60
2018-02-03T16:37:38.842Z,2.50
2018-02-03T16:40:07.147Z,2.50
2018-02-03T16:42:35.475Z,2.60
2018-02-03T16:45:03.790Z,2.60
2018-02-03T16:47:32.135Z,2.50
2018-02-03T16:50:00.435Z,2.60
2018-02-03T16:52:28.765Z,2.60
2018-02-03T16:54:57.841Z,2.70
2018-02-03T16:57:26.157Z,2.70
2018-02-03T16:59:54.469Z,2.70
2018-02-03T17:02:22.796Z,2.50
2018-02-03T17:04:51.877Z,2.30
2018-02-03T17:07:20.203Z,2.30
2018-02-03T17:09:48.503Z,2.40
2018-02-03T17:12:16.883Z,2.50
2018-02-03T17:14:45.196Z,2.40
2018-02-03T17:17:13.490Z,2.00
2018-02-03T17:19:42.579Z,2.10
2018-02-03T17:22:11.651Z,2.20
2018-02-03T17:24:39.975Z,2.20
2018-02-03T17:27:08.293Z,2.20
2018-02-03T17:29:36.625Z,2.20
2018-02-03T17:32:04.952Z,2.20
2018-02-03T17:34:33.281Z,2.20
2018-02-03T17:37:08.082Z,2.20
2018-02-03T17:39:36.416Z,2.20
2018-02-03T17:42:04.727Z,2.20
2018-02-03T17:44:33.063Z,2.10
2018-02-03T17:47:09.958Z,2.00
2018-02-03T17:49:38.283Z,2.00
2018-02-03T17:52:07.353Z,2.00
2018-02-03T17:54:35.675Z,2.00
2018-02-03T17:57:10.655Z,2.00
2018-02-03T17:59:38.976Z,2.00
2018-02-03T18:02:08.045Z,1.80
2018-02-03T18:04:36.392Z,1.80
2018-02-03T18:07:04.689Z,1.80
2018-02-03T18:09:33.016Z,1.70
2018-02-03T18:12:02.116Z,1.80
2018-02-03T18:14:31.293Z,1.90
2018-02-03T18:16:59.644Z,1.80
2018-02-03T18:19:27.947Z,1.80
2018-02-03T18:21:56.287Z,1.90
2018-02-03T18:24:24.594Z,1.70
2018-02-03T18:26:52.937Z,1.70
2018-02-03T18:29:21.250Z,1.70
2018-02-03T18:31:49.595Z,1.50
2018-02-03T18:34:17.899Z,1.50
2018-02-03T18:36:46.240Z,1.50
2018-02-03T18:39:14.693Z,1.60
2018-02-03T18:41:43.932Z,1.70
2018-02-03T18:44:12.308Z,1.70
2018-02-03T18:46:40.645Z,1.60
2018-02-03T18:49:08.974Z,1.60
2018-02-03T18:51:37.347Z,1.50
2018-02-03T18:54:05.647Z,1.50
2018-02-03T18:56:34.907Z,1.60
2018-02-03T18:59:03.211Z,1.50
2018-02-03T19:01:31.588Z,1.60
2018-02-03T19:03:59.887Z,1.70
2018-02-03T19:06:28.213Z,1.60
2018-02-03T19:08:56.529Z,1.70
2018-02-03T19:11:25.032Z,1.70
2018-02-03T19:13:53.339Z,1.60
2018-02-03T19:16:21.692Z,1.60
2018-02-03T19:18:50.011Z,1.60
2018-02-03T19:21:18.316Z,1.50
2018-02-03T19:23:48.610Z,1.50
2018-02-03T19:26:16.961Z,1.50
2018-02-03T19:28:45.289Z,1.50
2018-02-03T19:31:13.597Z,1.50
2018-02-03T19:33:41.966Z,1.40
2018-02-03T19:36:10.310Z,1.50
2018-02-03T19:38:38.679Z,1.50
2018-02-03T19:41:07.746Z,1.40
2018-02-03T19:43:36.081Z,1.40
2018-02-03T19:46:04.388Z,1.30
2018-02-03T19:48:32.725Z,1.30
2018-02-03T19:51:01.126Z,1.10
2018-02-03T19:53:29.424Z,1.00
2018-02-03T19:55:57.787Z,0.80
2018-02-03T19:58:26.129Z,0.80
2018-02-03T20:00:55.268Z,0.80
2018-02-03T20:03:23.584Z,0.80
2018-02-03T20:05:52.684Z,0.80
2018-02-03T20:08:21.763Z,1.00
2018-02-03T20:10:50.100Z,1.00
2018-02-03T20:13:18.418Z,1.00
2018-02-03T20:15:46.753Z,1.00
2018-02-03T20:18:15.114Z,0.80
2018-02-03T20:20:44.255Z,0.80
2018-02-03T20:23:12.612Z,0.80
2018-02-03T20:25:40.936Z,0.90
2018-02-03T20:28:09.294Z,0.90
2018-02-03T20:30:37.654Z,0.90
2018-02-03T20:33:05.960Z,1.00
2018-02-03T20:35:34.348Z,1.10
2018-02-03T20:38:02.707Z,1.00
2018-02-03T20:40:31.027Z,1.00
2018-02-03T20:43:00.151Z,0.80
2018-02-03T20:45:28.466Z,0.80
2018-02-03T20:47:56.818Z,0.90
2018-02-03T20:50:25.151Z,1.00
2018-02-03T20:52:53.681Z,0.90
2018-02-03T20:55:22.027Z,1.00
2018-02-03T20:57:51.123Z,1.10
2018-02-03T21:00:20.254Z,1.10
2018-02-03T21:02:48.575Z,1.10
2018-02-03T21:05:16.881Z,1.10
2018-02-03T21:07:46.020Z,1.10
2018-02-03T21:10:14.320Z,1.10
2018-02-03T21:12:42.650Z,1.00
2018-02-03T21:15:10.959Z,1.00
2018-02-03T21:17:39.343Z,1.00
2018-02-03T21:20:07.646Z,1.10
2018-02-03T21:22:35.968Z,1.10
2018-02-03T21:25:04.323Z,1.00
2018-02-03T21:27:33.416Z,0.90
2018-02-03T21:30:02.496Z,0.90
2018-02-03T21:32:30.867Z,0.90
2018-02-03T21:34:59.167Z,0.90
2018-02-03T21:37:28.314Z,1.00
2018-02-03T21:39:56.625Z,1.00
2018-02-03T21:42:24.999Z,1.10
2018-02-03T21:44:53.355Z,1.10
2018-02-03T21:47:21.689Z,1.00
2018-02-03T21:49:50.770Z,0.90
2018-02-03T21:52:19.086Z,0.90
2018-02-03T21:54:47.413Z,0.90
2018-02-03T21:57:15.713Z,0.90
2018-02-03T21:59:44.821Z,0.70
2018-02-03T22:02:13.897Z,0.80
2018-02-03T22:04:42.269Z,0.70
2018-02-03T22:07:10.573Z,0.70
2018-02-03T22:09:39.682Z,0.90
2018-02-03T22:12:08.035Z,0.80
2018-02-03T22:14:36.352Z,0.90
2018-02-03T22:17:04.661Z,0.90
2018-02-03T22:19:32.992Z,0.90
2018-02-03T22:22:01.346Z,0.80
2018-02-03T22:24:29.764Z,0.60
2018-02-03T22:26:58.071Z,0.70
2018-02-03T22:29:27.400Z,0.70
2018-02-03T22:31:55.772Z,0.70
2018-02-03T22:34:24.213Z,0.60
2018-02-03T22:36:53.380Z,0.40
2018-02-03T22:39:22.462Z,0.30
2018-02-03T22:41:50.876Z,0.30
2018-02-03T22:44:19.270Z,0.20
2018-02-03T22:46:50.652Z,0.40
2018-02-03T22:49:18.987Z,0.40
2018-02-03T22:51:47.287Z,0.40
2018-02-03T22:54:15.616Z,0.30
2018-02-03T22:56:44.691Z,0.20
2018-02-03T22:59:12.999Z,0.20
2018-02-03T23:01:41.325Z,0.10
2018-02-03T23:04:09.629Z,0.00
2018-02-03T23:06:41.869Z,-0.10
2018-02-03T23:09:10.185Z,-0.10
2018-02-03T23:11:38.519Z,-0.10
2018-02-03T23:14:06.823Z,-0.20
2018-02-03T23:16:35.156Z,-0.10
2018-02-03T23:19:03.485Z,-0.20
2018-02-03T23:21:31.817Z,-0.10
2018-02-03T23:24:00.141Z,-0.10
2018-02-03T23:26:28.484Z,-0.20
2018-02-03T23:28:56.797Z,-0.20
2018-02-03T23:31:25.137Z,-0.20
2018-02-03T23:33:53.453Z,-0.20
2018-02-03T23:36:21.782Z,-0.20
2018-02-03T23:38:50.092Z,-0.30
2018-02-03T23:41:18.423Z,-0.60
2018-02-03T23:43:46.730Z,-0.60
2018-02-03T23:46:15.068Z,-0.50
2018-02-03T23:48:43.376Z,-0.50
2018-02-03T23:51:11.723Z,-0.50
2018-02-03T23:53:46.536Z,-0.70
2018-02-03T23:56:15.662Z,-0.70
2018-02-03T23:58:43.993Z,-0.70
